WetterOnline ( https://www.wetteronline.de )

Wetter aktuell Seubersdorf

Aktuelles Wetter: Gelbelsee (539m)

6-stündlich | Neueste Meldungen
Ortszeit Temperatur Wetter
Mo, 26.02. 1:00 2.5° C bewölkt
So, 25.02. 19:00 6.0° C wolkenlos
So, 25.02. 13:00 8.7° C wolkenlos
So, 25.02. 7:00 1.0° C leicht bewölkt
So, 25.02. 1:00 2.3° C bedeckt
Sa, 24.02. 19:00 4.0° C bedeckt
Sa, 24.02. 13:00 5.6° C wolkig
Sa, 24.02. 7:00 -0.9° C wolkenlos
Ortszeit Temperatur Wetter
Mo, 26.02. 2:30 1.9° C wolkig
Mo, 26.02. 2:20 1.9° C wolkig
Mo, 26.02. 2:10 1.9° C wolkig
Mo, 26.02. 2:00 1.9° C wolkig
Mo, 26.02. 1:50 1.9° C wolkig
Mo, 26.02. 1:40 2.0° C bewölkt
Mo, 26.02. 1:30 2.1° C wolkig
Mo, 26.02. 1:00 2.5° C bewölkt
Mo, 26.02. 0:30 3.3° C bewölkt
Mo, 26.02. 0:00 3.8° C bedeckt
So, 25.02. 23:30 3.8° C bedeckt
Ortszeit Relative Feuchte Sichtweite
Mo, 26.02. 1:00 85% 30 km
So, 25.02. 19:00 72% 65 km
So, 25.02. 13:00 45% 45 km
So, 25.02. 7:00 92% 27 km
So, 25.02. 1:00 87% 45 km
Sa, 24.02. 19:00 78% 60 km
Sa, 24.02. 13:00 68% 60 km
Sa, 24.02. 7:00 97% 10 km
Ortszeit Relative Feuchte Sichtweite
Mo, 26.02. 2:30 90% 17 km
Mo, 26.02. 2:20 90% -
Mo, 26.02. 2:10 90% -
Mo, 26.02. 2:00 89% 21 km
Mo, 26.02. 1:50 89% -
Mo, 26.02. 1:40 88% -
Mo, 26.02. 1:30 88% 25 km
Mo, 26.02. 1:00 85% 30 km
Mo, 26.02. 0:30 80% 35 km
Mo, 26.02. 0:00 78% 40 km
So, 25.02. 23:30 79% 40 km
Ortszeit Niederschlagsmenge Niederschlagsart
Mo, 26.02. 1:00 0.0 l/m2 in 6 Std. -
So, 25.02. 19:00 0.0 l/m2 in 12 Std. -
So, 25.02. 13:00 0.0 l/m2 in 6 Std. -
So, 25.02. 7:00 0.0 l/m2 in 12 Std. -
So, 25.02. 1:00 0.0 l/m2 in 6 Std. -
Sa, 24.02. 19:00 0.0 l/m2 in 12 Std. -
Sa, 24.02. 13:00 0.0 l/m2 in 6 Std. -
Sa, 24.02. 7:00 0.0 l/m2 in 12 Std. -
Ortszeit Niederschlagsmenge Niederschlagsart
Mo, 26.02. 2:30 0.0 l/m2 in 30 Min -
Mo, 26.02. 2:20 keine Meldung -
Mo, 26.02. 2:10 keine Meldung -
Mo, 26.02. 2:00 0.0 l/m2 in 1 Std. -
Mo, 26.02. 1:50 keine Meldung -
Mo, 26.02. 1:40 keine Meldung -
Mo, 26.02. 1:30 0.0 l/m2 in 30 Min -
Mo, 26.02. 1:00 0.0 l/m2 in 1 Std. -
Mo, 26.02. 0:30 0.0 l/m2 in 30 Min -
Mo, 26.02. 0:00 0.0 l/m2 in 1 Std. -
So, 25.02. 23:30 0.0 l/m2 in 30 Min -
Ortszeit Stärke Spitze Richtung
km/h Bft. km/h Grad Sektor
Mo, 26.02. 1:00 7 2 25 90° O
So, 25.02. 19:00 11 2 25 110° O
So, 25.02. 13:00 11 2 18 140° SO
So, 25.02. 7:00 11 2 14 120° SO
So, 25.02. 1:00 4 1 11 130° SO
Sa, 24.02. 19:00 4 1 22 110° O
Sa, 24.02. 13:00 11 2 20 210° SW
Sa, 24.02. 7:00 7 2 15 130° SO
Ortszeit Stärke Spitze Richtung
km/h Bft. km/h Grad Sektor
Mo, 26.02. 2:30 7 2 14 100° O
Mo, 26.02. 2:20 7 2 - 100° O
Mo, 26.02. 2:10 7 2 - 100° O
Mo, 26.02. 2:00 7 2 14 90° O
Mo, 26.02. 1:50 7 2 - 90° O
Mo, 26.02. 1:40 7 2 - 100° O
Mo, 26.02. 1:30 7 2 15 90° O
Mo, 26.02. 1:00 7 2 22 90° O
Mo, 26.02. 0:30 11 2 22 110° O
Mo, 26.02. 0:00 11 2 22 100° O
So, 25.02. 23:30 11 2 22 100° O
Ortszeit Untergrenze Bedeckung Gattung
total tief tief mittel hoch
Mo, 26.02. 1:00 6600 m 8/8 6/8 - - -
So, 25.02. 19:00 - 0/8 0/8 - - -
So, 25.02. 13:00 - 0/8 0/8 - - -
So, 25.02. 7:00 1800 m 2/8 2/8 - - -
So, 25.02. 1:00 3900 m 8/8 8/8 - - -
Sa, 24.02. 19:00 5100 m 8/8 8/8 - - -
Sa, 24.02. 13:00 6300 m 6/8 6/8 - - -
Sa, 24.02. 7:00 - 0/8 0/8 - - -
Ortszeit Bedeckungsgrad in Achtel und Wolkenuntergrenze
Mo, 26.02. 2:30 7(7800m)
Mo, 26.02. 2:20 7(7800m)
Mo, 26.02. 2:10 6
Mo, 26.02. 2:00 2(6000m) 7(8400m)
Mo, 26.02. 1:50 2(6000m) 7(8400m)
Mo, 26.02. 1:40 7
Mo, 26.02. 1:30 2(6600m) 7(7200m) 7(8100m)
Mo, 26.02. 1:00 6(6600m) 8(7200m) 8(8400m)
Mo, 26.02. 0:30 6(6000m) 8(7500m) 8(8100m)
Mo, 26.02. 0:00 8(5700m) 8(8100m)
So, 25.02. 23:30 7(6000m) 8(6600m) 8(8700m)
Ortszeit Luftdruck NN (hPa) Tendenz (hPa in 3 Std.)
Mo, 26.02. 1:00 1002 - 1,3
So, 25.02. 19:00 1004 - 0,9
So, 25.02. 13:00 1006 - 1,6
So, 25.02. 7:00 1009 - 0,3
So, 25.02. 1:00 1010 0,0
Sa, 24.02. 19:00 1009 + 1,0
Sa, 24.02. 13:00 1006 + 1,1
Sa, 24.02. 7:00 1004 + 1,2
Ortszeit Luftdruck NN (hPa) Tendenz (hPa in 3 Std.)
Mo, 26.02. 2:30 1002 - 0,8
Mo, 26.02. 2:20 1002 keine Meldung
Mo, 26.02. 2:10 1002 keine Meldung
Mo, 26.02. 2:00 1002 - 1,0
Mo, 26.02. 1:50 1002 keine Meldung
Mo, 26.02. 1:40 1002 keine Meldung
Mo, 26.02. 1:30 1002 - 1,2
Mo, 26.02. 1:00 1002 - 1,3
Mo, 26.02. 0:30 1002 - 1,3
Mo, 26.02. 0:00 1002 - 1,3
So, 25.02. 23:30 1002 - 1,5
Ortszeit Schneehöhe (cm)
Mo, 26.02. 1:00 0
So, 25.02. 19:00 0
So, 25.02. 13:00 0
So, 25.02. 7:00 0
So, 25.02. 1:00 0
Sa, 24.02. 19:00 0
Sa, 24.02. 13:00 0
Sa, 24.02. 7:00 0
Ortszeit Schneehöhe (cm)
Mo, 26.02. 2:30 0
Mo, 26.02. 2:20 0
Mo, 26.02. 2:10 -
Mo, 26.02. 2:00 0
Mo, 26.02. 1:50 0
Mo, 26.02. 1:40 -
Mo, 26.02. 1:30 0
Mo, 26.02. 1:00 0
Mo, 26.02. 0:30 0
Mo, 26.02. 0:00 0
So, 25.02. 23:30 0
Link zu dieser Seite / Seite empfehlen

Das Wetter in ...